sensor_id;sensor_type;location;lat;lon;timestamp;temperature;humidity
80232;DHT22;70197;42.124;24.752;2023-07-31T00:00:06;26.10;47.90
80232;DHT22;70197;42.124;24.752;2023-07-31T00:02:32;26.10;48.00
80232;DHT22;70197;42.124;24.752;2023-07-31T00:04:58;26.10;48.50
80232;DHT22;70197;42.124;24.752;2023-07-31T00:07:23;26.00;48.10
80232;DHT22;70197;42.124;24.752;2023-07-31T00:09:49;26.00;48.00
80232;DHT22;70197;42.124;24.752;2023-07-31T00:12:14;26.00;47.80
80232;DHT22;70197;42.124;24.752;2023-07-31T00:14:40;26.00;47.90
80232;DHT22;70197;42.124;24.752;2023-07-31T00:17:06;26.00;48.30
80232;DHT22;70197;42.124;24.752;2023-07-31T00:19:31;25.90;49.40
80232;DHT22;70197;42.124;24.752;2023-07-31T00:21:57;25.90;49.40
80232;DHT22;70197;42.124;24.752;2023-07-31T00:24:22;26.00;49.40
80232;DHT22;70197;42.124;24.752;2023-07-31T00:26:48;25.90;49.00
80232;DHT22;70197;42.124;24.752;2023-07-31T00:29:14;25.80;48.80
80232;DHT22;70197;42.124;24.752;2023-07-31T00:31:39;25.80;48.40
80232;DHT22;70197;42.124;24.752;2023-07-31T00:34:05;25.70;48.90
80232;DHT22;70197;42.124;24.752;2023-07-31T00:36:30;25.70;49.30
80232;DHT22;70197;42.124;24.752;2023-07-31T00:38:56;25.60;49.50
80232;DHT22;70197;42.124;24.752;2023-07-31T00:41:22;25.60;50.00
80232;DHT22;70197;42.124;24.752;2023-07-31T00:43:47;25.50;50.10
80232;DHT22;70197;42.124;24.752;2023-07-31T00:46:13;25.50;50.30
80232;DHT22;70197;42.124;24.752;2023-07-31T00:48:39;25.50;50.40
80232;DHT22;70197;42.124;24.752;2023-07-31T00:51:06;25.60;50.30
80232;DHT22;70197;42.124;24.752;2023-07-31T00:53:32;25.60;50.10
80232;DHT22;70197;42.124;24.752;2023-07-31T00:55:58;25.60;50.00
80232;DHT22;70197;42.124;24.752;2023-07-31T00:58:23;25.50;50.10
80232;DHT22;70197;42.124;24.752;2023-07-31T01:00:49;25.40;50.50
80232;DHT22;70197;42.124;24.752;2023-07-31T01:03:16;25.20;50.70
80232;DHT22;70197;42.124;24.752;2023-07-31T01:11:17;25.10;51.00
80232;DHT22;70197;42.124;24.752;2023-07-31T01:13:44;25.10;52.30
80232;DHT22;70197;42.124;24.752;2023-07-31T01:16:11;25.20;51.20
80232;DHT22;70197;42.124;24.752;2023-07-31T01:18:36;25.30;51.00
80232;DHT22;70197;42.124;24.752;2023-07-31T01:26:19;25.30;51.10
80232;DHT22;70197;42.124;24.752;2023-07-31T01:29:00;25.30;51.10
80232;DHT22;70197;42.124;24.752;2023-07-31T01:31:29;25.20;51.10
80232;DHT22;70197;42.124;24.752;2023-07-31T01:33:57;25.20;51.40
80232;DHT22;70197;42.124;24.752;2023-07-31T01:36:23;25.20;51.60
80232;DHT22;70197;42.124;24.752;2023-07-31T01:38:49;25.10;51.70
80232;DHT22;70197;42.124;24.752;2023-07-31T01:41:18;25.00;51.80
80232;DHT22;70197;42.124;24.752;2023-07-31T01:43:45;25.00;52.10
80232;DHT22;70197;42.124;24.752;2023-07-31T01:46:11;25.00;52.50
80232;DHT22;70197;42.124;24.752;2023-07-31T01:48:37;25.10;52.20
80232;DHT22;70197;42.124;24.752;2023-07-31T01:51:03;25.10;52.10
80232;DHT22;70197;42.124;24.752;2023-07-31T01:53:30;25.10;52.20
80232;DHT22;70197;42.124;24.752;2023-07-31T01:55:56;25.10;52.20
80232;DHT22;70197;42.124;24.752;2023-07-31T01:58:21;25.10;52.20
80232;DHT22;70197;42.124;24.752;2023-07-31T02:00:47;25.10;52.20
80232;DHT22;70197;42.124;24.752;2023-07-31T02:03:13;25.00;52.40
80232;DHT22;70197;42.124;24.752;2023-07-31T02:05:48;25.10;52.30
80232;DHT22;70197;42.124;24.752;2023-07-31T02:08:15;25.20;52.10
80232;DHT22;70197;42.124;24.752;2023-07-31T02:10:41;25.10;52.20
80232;DHT22;70197;42.124;24.752;2023-07-31T02:13:06;25.10;52.40
80232;DHT22;70197;42.124;24.752;2023-07-31T02:15:32;25.10;52.40
80232;DHT22;70197;42.124;24.752;2023-07-31T02:17:58;25.00;52.30
80232;DHT22;70197;42.124;24.752;2023-07-31T02:20:24;24.90;52.70
80232;DHT22;70197;42.124;24.752;2023-07-31T02:22:50;25.00;52.90
80232;DHT22;70197;42.124;24.752;2023-07-31T02:25:15;24.90;53.00
80232;DHT22;70197;42.124;24.752;2023-07-31T02:27:41;24.90;53.10
80232;DHT22;70197;42.124;24.752;2023-07-31T02:30:07;24.70;53.60
80232;DHT22;70197;42.124;24.752;2023-07-31T02:32:33;24.70;53.70
80232;DHT22;70197;42.124;24.752;2023-07-31T02:34:58;24.80;53.40
80232;DHT22;70197;42.124;24.752;2023-07-31T02:37:25;24.90;53.50
80232;DHT22;70197;42.124;24.752;2023-07-31T02:39:50;24.90;53.30
80232;DHT22;70197;42.124;24.752;2023-07-31T02:42:16;25.00;53.20
80232;DHT22;70197;42.124;24.752;2023-07-31T02:44:42;24.90;53.00
80232;DHT22;70197;42.124;24.752;2023-07-31T02:47:07;24.90;52.90
80232;DHT22;70197;42.124;24.752;2023-07-31T02:49:33;24.90;53.10
80232;DHT22;70197;42.124;24.752;2023-07-31T02:51:59;24.90;53.10
80232;DHT22;70197;42.124;24.752;2023-07-31T02:54:24;24.90;53.00
80232;DHT22;70197;42.124;24.752;2023-07-31T02:56:50;24.90;52.90
80232;DHT22;70197;42.124;24.752;2023-07-31T02:59:17;24.80;52.90
80232;DHT22;70197;42.124;24.752;2023-07-31T03:01:42;24.70;53.00
80232;DHT22;70197;42.124;24.752;2023-07-31T03:04:08;24.80;53.00
80232;DHT22;70197;42.124;24.752;2023-07-31T03:06:33;24.80;53.10
80232;DHT22;70197;42.124;24.752;2023-07-31T03:08:59;24.90;52.90
80232;DHT22;70197;42.124;24.752;2023-07-31T03:11:25;25.00;52.80
80232;DHT22;70197;42.124;24.752;2023-07-31T03:13:50;24.90;52.60
80232;DHT22;70197;42.124;24.752;2023-07-31T03:16:16;24.90;52.70
80232;DHT22;70197;42.124;24.752;2023-07-31T03:18:42;24.80;52.80
80232;DHT22;70197;42.124;24.752;2023-07-31T03:21:07;24.80;53.00
80232;DHT22;70197;42.124;24.752;2023-07-31T03:23:33;24.70;53.10
80232;DHT22;70197;42.124;24.752;2023-07-31T03:26:03;24.60;53.60
80232;DHT22;70197;42.124;24.752;2023-07-31T03:28:29;24.70;53.40
80232;DHT22;70197;42.124;24.752;2023-07-31T03:30:55;24.70;53.40
80232;DHT22;70197;42.124;24.752;2023-07-31T03:33:20;24.70;53.30
80232;DHT22;70197;42.124;24.752;2023-07-31T03:35:46;24.80;53.30
80232;DHT22;70197;42.124;24.752;2023-07-31T03:38:12;24.90;53.00
80232;DHT22;70197;42.124;24.752;2023-07-31T03:40:38;24.90;52.90
80232;DHT22;70197;42.124;24.752;2023-07-31T03:43:03;24.90;52.70
80232;DHT22;70197;42.124;24.752;2023-07-31T03:45:29;25.00;52.80
80232;DHT22;70197;42.124;24.752;2023-07-31T03:47:54;24.90;52.70
80232;DHT22;70197;42.124;24.752;2023-07-31T03:50:20;25.00;52.50
80232;DHT22;70197;42.124;24.752;2023-07-31T03:52:47;25.00;52.20
80232;DHT22;70197;42.124;24.752;2023-07-31T03:55:13;25.10;52.20
80232;DHT22;70197;42.124;24.752;2023-07-31T03:57:38;25.10;52.00
80232;DHT22;70197;42.124;24.752;2023-07-31T04:00:04;25.10;51.80
80232;DHT22;70197;42.124;24.752;2023-07-31T04:02:30;25.10;51.60
80232;DHT22;70197;42.124;24.752;2023-07-31T04:04:56;25.10;51.80
80232;DHT22;70197;42.124;24.752;2023-07-31T04:07:21;25.10;51.90
80232;DHT22;70197;42.124;24.752;2023-07-31T04:09:47;25.00;51.70
80232;DHT22;70197;42.124;24.752;2023-07-31T04:12:12;25.00;51.90
80232;DHT22;70197;42.124;24.752;2023-07-31T04:14:38;25.10;51.70
80232;DHT22;70197;42.124;24.752;2023-07-31T04:17:04;25.00;51.80
80232;DHT22;70197;42.124;24.752;2023-07-31T04:19:29;25.00;52.00
80232;DHT22;70197;42.124;24.752;2023-07-31T04:21:55;25.00;51.80
80232;DHT22;70197;42.124;24.752;2023-07-31T04:24:21;25.00;51.80
80232;DHT22;70197;42.124;24.752;2023-07-31T04:26:53;25.00;51.90
80232;DHT22;70197;42.124;24.752;2023-07-31T04:29:19;25.10;51.80
80232;DHT22;70197;42.124;24.752;2023-07-31T04:31:45;25.10;51.30
80232;DHT22;70197;42.124;24.752;2023-07-31T04:34:10;25.20;51.40
80232;DHT22;70197;42.124;24.752;2023-07-31T04:36:37;25.20;51.30
80232;DHT22;70197;42.124;24.752;2023-07-31T04:39:02;25.20;50.90
80232;DHT22;70197;42.124;24.752;2023-07-31T04:41:28;25.20;50.90
80232;DHT22;70197;42.124;24.752;2023-07-31T04:43:54;25.20;50.80
80232;DHT22;70197;42.124;24.752;2023-07-31T04:46:19;25.30;50.70
80232;DHT22;70197;42.124;24.752;2023-07-31T04:48:45;25.20;50.30
80232;DHT22;70197;42.124;24.752;2023-07-31T04:51:11;25.30;50.30
80232;DHT22;70197;42.124;24.752;2023-07-31T04:53:36;25.20;49.80
80232;DHT22;70197;42.124;24.752;2023-07-31T04:56:02;25.10;50.30
80232;DHT22;70197;42.124;24.752;2023-07-31T04:58:28;25.00;50.50
80232;DHT22;70197;42.124;24.752;2023-07-31T05:00:53;25.00;50.40
80232;DHT22;70197;42.124;24.752;2023-07-31T05:03:19;25.20;50.00
80232;DHT22;70197;42.124;24.752;2023-07-31T05:05:45;25.30;50.00
80232;DHT22;70197;42.124;24.752;2023-07-31T05:08:10;25.40;49.60
80232;DHT22;70197;42.124;24.752;2023-07-31T05:10:36;25.60;49.20
80232;DHT22;70197;42.124;24.752;2023-07-31T05:13:02;25.60;48.90
80232;DHT22;70197;42.124;24.752;2023-07-31T05:15:28;25.70;48.90
80232;DHT22;70197;42.124;24.752;2023-07-31T05:17:53;25.80;48.70
80232;DHT22;70197;42.124;24.752;2023-07-31T05:20:19;25.90;48.70
80232;DHT22;70197;42.124;24.752;2023-07-31T05:22:45;26.00;48.40
80232;DHT22;70197;42.124;24.752;2023-07-31T05:25:10;26.10;47.90
80232;DHT22;70197;42.124;24.752;2023-07-31T05:27:36;26.20;47.40
80232;DHT22;70197;42.124;24.752;2023-07-31T05:30:02;26.40;47.40
80232;DHT22;70197;42.124;24.752;2023-07-31T05:32:27;26.50;47.20
80232;DHT22;70197;42.124;24.752;2023-07-31T05:34:53;26.50;46.60
80232;DHT22;70197;42.124;24.752;2023-07-31T05:37:19;26.70;46.50
80232;DHT22;70197;42.124;24.752;2023-07-31T05:39:45;26.90;45.90
80232;DHT22;70197;42.124;24.752;2023-07-31T05:42:11;27.00;45.40
80232;DHT22;70197;42.124;24.752;2023-07-31T05:44:37;27.20;45.30
80232;DHT22;70197;42.124;24.752;2023-07-31T05:47:02;27.40;44.90
80232;DHT22;70197;42.124;24.752;2023-07-31T05:49:28;27.40;44.40
80232;DHT22;70197;42.124;24.752;2023-07-31T05:51:54;27.50;44.30
80232;DHT22;70197;42.124;24.752;2023-07-31T05:54:19;27.70;44.00
80232;DHT22;70197;42.124;24.752;2023-07-31T05:56:45;27.70;43.10
80232;DHT22;70197;42.124;24.752;2023-07-31T05:59:12;27.80;42.50
80232;DHT22;70197;42.124;24.752;2023-07-31T06:01:39;28.10;41.80
80232;DHT22;70197;42.124;24.752;2023-07-31T06:04:04;28.10;42.30
80232;DHT22;70197;42.124;24.752;2023-07-31T06:06:30;28.00;41.30
80232;DHT22;70197;42.124;24.752;2023-07-31T06:08:56;28.10;41.70
80232;DHT22;70197;42.124;24.752;2023-07-31T06:11:21;28.20;41.40
80232;DHT22;70197;42.124;24.752;2023-07-31T06:13:47;28.20;40.50
80232;DHT22;70197;42.124;24.752;2023-07-31T06:16:14;28.30;40.60
80232;DHT22;70197;42.124;24.752;2023-07-31T06:18:41;28.30;40.10
80232;DHT22;70197;42.124;24.752;2023-07-31T06:21:07;28.30;39.90
80232;DHT22;70197;42.124;24.752;2023-07-31T06:23:33;28.20;40.00
80232;DHT22;70197;42.124;24.752;2023-07-31T06:25:59;28.20;40.00
80232;DHT22;70197;42.124;24.752;2023-07-31T06:28:31;28.10;40.00
80232;DHT22;70197;42.124;24.752;2023-07-31T06:31:00;28.20;39.90
80232;DHT22;70197;42.124;24.752;2023-07-31T06:33:26;28.20;39.20
80232;DHT22;70197;42.124;24.752;2023-07-31T06:35:52;28.40;38.50
80232;DHT22;70197;42.124;24.752;2023-07-31T06:38:26;28.60;39.10
80232;DHT22;70197;42.124;24.752;2023-07-31T06:40:52;28.80;36.60
80232;DHT22;70197;42.124;24.752;2023-07-31T06:43:17;28.70;36.60
80232;DHT22;70197;42.124;24.752;2023-07-31T06:45:43;28.60;37.00
80232;DHT22;70197;42.124;24.752;2023-07-31T06:48:09;28.60;37.10
80232;DHT22;70197;42.124;24.752;2023-07-31T06:50:35;28.60;37.60
80232;DHT22;70197;42.124;24.752;2023-07-31T06:53:00;28.80;37.20
80232;DHT22;70197;42.124;24.752;2023-07-31T06:55:26;29.10;36.60
80232;DHT22;70197;42.124;24.752;2023-07-31T06:57:54;29.20;36.50
80232;DHT22;70197;42.124;24.752;2023-07-31T07:00:21;29.70;36.10
80232;DHT22;70197;42.124;24.752;2023-07-31T07:02:47;30.10;35.00
80232;DHT22;70197;42.124;24.752;2023-07-31T07:05:13;30.30;34.50
80232;DHT22;70197;42.124;24.752;2023-07-31T07:07:40;30.50;34.30
80232;DHT22;70197;42.124;24.752;2023-07-31T07:10:07;30.60;34.10
80232;DHT22;70197;42.124;24.752;2023-07-31T07:12:33;30.60;33.90
80232;DHT22;70197;42.124;24.752;2023-07-31T07:14:59;30.50;34.10
80232;DHT22;70197;42.124;24.752;2023-07-31T07:17:28;30.50;34.70
80232;DHT22;70197;42.124;24.752;2023-07-31T07:19:53;30.60;33.60
80232;DHT22;70197;42.124;24.752;2023-07-31T07:22:20;30.60;33.20
80232;DHT22;70197;42.124;24.752;2023-07-31T07:24:46;30.70;33.20
80232;DHT22;70197;42.124;24.752;2023-07-31T07:27:11;30.50;33.30
80232;DHT22;70197;42.124;24.752;2023-07-31T07:29:38;30.50;33.50
80232;DHT22;70197;42.124;24.752;2023-07-31T07:32:50;30.60;32.50
80232;DHT22;70197;42.124;24.752;2023-07-31T07:35:15;30.70;32.90
80232;DHT22;70197;42.124;24.752;2023-07-31T07:37:41;30.70;32.70
80232;DHT22;70197;42.124;24.752;2023-07-31T07:40:07;30.70;32.50
80232;DHT22;70197;42.124;24.752;2023-07-31T07:42:33;30.80;32.50
80232;DHT22;70197;42.124;24.752;2023-07-31T07:44:58;30.80;32.50
80232;DHT22;70197;42.124;24.752;2023-07-31T07:47:24;31.00;32.30
80232;DHT22;70197;42.124;24.752;2023-07-31T07:49:50;31.10;32.10
80232;DHT22;70197;42.124;24.752;2023-07-31T07:52:15;31.20;32.20
80232;DHT22;70197;42.124;24.752;2023-07-31T07:54:41;31.30;31.60
80232;DHT22;70197;42.124;24.752;2023-07-31T07:57:06;31.40;31.30
80232;DHT22;70197;42.124;24.752;2023-07-31T07:59:32;31.40;31.00
80232;DHT22;70197;42.124;24.752;2023-07-31T08:01:57;31.40;30.90
80232;DHT22;70197;42.124;24.752;2023-07-31T08:04:23;31.40;30.90
80232;DHT22;70197;42.124;24.752;2023-07-31T08:06:49;31.30;31.20
80232;DHT22;70197;42.124;24.752;2023-07-31T08:09:14;31.40;31.20
80232;DHT22;70197;42.124;24.752;2023-07-31T08:11:40;31.50;31.00
80232;DHT22;70197;42.124;24.752;2023-07-31T08:14:06;31.50;30.90
80232;DHT22;70197;42.124;24.752;2023-07-31T08:16:31;31.40;30.80
80232;DHT22;70197;42.124;24.752;2023-07-31T08:18:57;31.40;31.00
80232;DHT22;70197;42.124;24.752;2023-07-31T08:21:23;31.40;30.90
80232;DHT22;70197;42.124;24.752;2023-07-31T08:23:49;31.50;30.50
80232;DHT22;70197;42.124;24.752;2023-07-31T08:26:18;31.70;29.90
80232;DHT22;70197;42.124;24.752;2023-07-31T08:28:44;32.10;29.60
80232;DHT22;70197;42.124;24.752;2023-07-31T08:31:10;32.60;30.00
80232;DHT22;70197;42.124;24.752;2023-07-31T08:33:36;32.90;28.40
80232;DHT22;70197;42.124;24.752;2023-07-31T08:36:02;34.20;27.50
80232;DHT22;70197;42.124;24.752;2023-07-31T08:38:28;36.80;24.80
80232;DHT22;70197;42.124;24.752;2023-07-31T08:40:56;39.50;22.00
80232;DHT22;70197;42.124;24.752;2023-07-31T08:43:25;42.10;19.70
80232;DHT22;70197;42.124;24.752;2023-07-31T08:45:51;44.50;17.60
80232;DHT22;70197;42.124;24.752;2023-07-31T08:48:17;45.20;16.60
80232;DHT22;70197;42.124;24.752;2023-07-31T08:50:43;45.60;15.80
80232;DHT22;70197;42.124;24.752;2023-07-31T08:53:09;47.30;14.90
80232;DHT22;70197;42.124;24.752;2023-07-31T08:55:36;47.90;14.30
80232;DHT22;70197;42.124;24.752;2023-07-31T08:58:04;48.00;14.00
80232;DHT22;70197;42.124;24.752;2023-07-31T09:00:32;48.10;13.80
80232;DHT22;70197;42.124;24.752;2023-07-31T09:05:33;49.80;12.90
80232;DHT22;70197;42.124;24.752;2023-07-31T09:08:02;49.60;12.70
80232;DHT22;70197;42.124;24.752;2023-07-31T09:10:29;47.50;13.70
80232;DHT22;70197;42.124;24.752;2023-07-31T09:12:55;45.80;14.90
80232;DHT22;70197;42.124;24.752;2023-07-31T09:15:22;46.00;14.70
80232;DHT22;70197;42.124;24.752;2023-07-31T09:17:59;45.80;14.80
80232;DHT22;70197;42.124;24.752;2023-07-31T09:20:28;45.90;15.10
80232;DHT22;70197;42.124;24.752;2023-07-31T09:22:55;45.50;14.90
80232;DHT22;70197;42.124;24.752;2023-07-31T09:25:23;44.50;15.40
80232;DHT22;70197;42.124;24.752;2023-07-31T09:28:00;43.70;16.30
80232;DHT22;70197;42.124;24.752;2023-07-31T09:30:26;42.80;17.00
80232;DHT22;70197;42.124;24.752;2023-07-31T09:33:03;41.90;17.70
80232;DHT22;70197;42.124;24.752;2023-07-31T09:35:31;41.20;18.30
80232;DHT22;70197;42.124;24.752;2023-07-31T09:38:11;40.50;18.70
80232;DHT22;70197;42.124;24.752;2023-07-31T09:40:42;40.10;18.80
80232;DHT22;70197;42.124;24.752;2023-07-31T09:43:10;39.60;20.40
80232;DHT22;70197;42.124;24.752;2023-07-31T09:45:37;39.30;19.80
80232;DHT22;70197;42.124;24.752;2023-07-31T09:48:07;39.00;20.20
80232;DHT22;70197;42.124;24.752;2023-07-31T09:50:40;38.50;20.50
80232;DHT22;70197;42.124;24.752;2023-07-31T09:53:06;38.30;21.10
80232;DHT22;70197;42.124;24.752;2023-07-31T09:55:33;37.80;21.40
80232;DHT22;70197;42.124;24.752;2023-07-31T09:57:58;37.60;21.60
80232;DHT22;70197;42.124;24.752;2023-07-31T10:00:25;37.30;21.70
80232;DHT22;70197;42.124;24.752;2023-07-31T10:02:54;37.00;22.00
80232;DHT22;70197;42.124;24.752;2023-07-31T10:05:20;36.60;22.40
80232;DHT22;70197;42.124;24.752;2023-07-31T10:07:53;35.80;23.00
80232;DHT22;70197;42.124;24.752;2023-07-31T10:10:20;35.50;23.40
80232;DHT22;70197;42.124;24.752;2023-07-31T10:12:48;35.20;23.80
80232;DHT22;70197;42.124;24.752;2023-07-31T10:15:15;35.00;24.00
80232;DHT22;70197;42.124;24.752;2023-07-31T10:17:41;34.60;24.30
80232;DHT22;70197;42.124;24.752;2023-07-31T10:20:07;34.20;24.50
80232;DHT22;70197;42.124;24.752;2023-07-31T10:22:34;34.10;25.00
80232;DHT22;70197;42.124;24.752;2023-07-31T10:25:00;34.10;25.00
80232;DHT22;70197;42.124;24.752;2023-07-31T10:27:26;34.00;24.90
80232;DHT22;70197;42.124;24.752;2023-07-31T10:29:54;34.00;24.60
80232;DHT22;70197;42.124;24.752;2023-07-31T10:32:20;33.90;24.70
80232;DHT22;70197;42.124;24.752;2023-07-31T10:34:47;33.70;25.10
80232;DHT22;70197;42.124;24.752;2023-07-31T10:37:36;33.60;25.20
80232;DHT22;70197;42.124;24.752;2023-07-31T10:40:09;33.40;25.30
80232;DHT22;70197;42.124;24.752;2023-07-31T10:42:38;33.40;25.20
80232;DHT22;70197;42.124;24.752;2023-07-31T10:45:07;33.40;25.00
80232;DHT22;70197;42.124;24.752;2023-07-31T10:47:42;33.40;25.20
80232;DHT22;70197;42.124;24.752;2023-07-31T10:50:12;33.10;25.70
80232;DHT22;70197;42.124;24.752;2023-07-31T10:52:38;33.10;25.60
80232;DHT22;70197;42.124;24.752;2023-07-31T10:55:59;33.20;25.60
80232;DHT22;70197;42.124;24.752;2023-07-31T10:58:11;33.30;25.50
80232;DHT22;70197;42.124;24.752;2023-07-31T11:00:38;33.20;25.30
80232;DHT22;70197;42.124;24.752;2023-07-31T11:03:09;33.20;25.30
80232;DHT22;70197;42.124;24.752;2023-07-31T11:06:02;33.10;25.00
80232;DHT22;70197;42.124;24.752;2023-07-31T11:08:33;32.90;25.20
80232;DHT22;70197;42.124;24.752;2023-07-31T11:13:31;32.60;25.60
80232;DHT22;70197;42.124;24.752;2023-07-31T11:15:58;32.40;26.10
80232;DHT22;70197;42.124;24.752;2023-07-31T11:18:24;32.40;25.90
80232;DHT22;70197;42.124;24.752;2023-07-31T11:20:51;32.50;26.00
80232;DHT22;70197;42.124;24.752;2023-07-31T11:23:17;32.50;25.70
80232;DHT22;70197;42.124;24.752;2023-07-31T11:25:43;32.40;25.60
80232;DHT22;70197;42.124;24.752;2023-07-31T11:28:11;32.50;25.80
80232;DHT22;70197;42.124;24.752;2023-07-31T11:30:37;32.50;25.20
80232;DHT22;70197;42.124;24.752;2023-07-31T11:33:05;32.40;25.10
80232;DHT22;70197;42.124;24.752;2023-07-31T11:35:32;32.40;25.00
80232;DHT22;70197;42.124;24.752;2023-07-31T11:37:58;32.40;25.20
80232;DHT22;70197;42.124;24.752;2023-07-31T11:40:24;32.50;25.10
80232;DHT22;70197;42.124;24.752;2023-07-31T11:42:57;32.40;25.30
80232;DHT22;70197;42.124;24.752;2023-07-31T11:45:25;32.40;25.30
80232;DHT22;70197;42.124;24.752;2023-07-31T11:47:52;32.20;25.50
80232;DHT22;70197;42.124;24.752;2023-07-31T11:50:19;32.20;25.80
80232;DHT22;70197;42.124;24.752;2023-07-31T11:52:45;32.20;26.20
80232;DHT22;70197;42.124;24.752;2023-07-31T11:55:12;32.30;26.00
80232;DHT22;70197;42.124;24.752;2023-07-31T11:57:40;32.40;26.00
80232;DHT22;70197;42.124;24.752;2023-07-31T12:00:08;32.30;26.30
80232;DHT22;70197;42.124;24.752;2023-07-31T12:02:35;32.10;26.50
80232;DHT22;70197;42.124;24.752;2023-07-31T12:05:01;31.70;26.30
80232;DHT22;70197;42.124;24.752;2023-07-31T12:07:27;31.70;26.40
80232;DHT22;70197;42.124;24.752;2023-07-31T12:09:56;31.70;26.50
80232;DHT22;70197;42.124;24.752;2023-07-31T12:12:22;31.60;26.60
80232;DHT22;70197;42.124;24.752;2023-07-31T12:14:48;31.40;26.80
80232;DHT22;70197;42.124;24.752;2023-07-31T12:17:16;31.40;27.00
80232;DHT22;70197;42.124;24.752;2023-07-31T12:19:42;31.30;27.10
80232;DHT22;70197;42.124;24.752;2023-07-31T12:22:12;31.00;27.60
80232;DHT22;70197;42.124;24.752;2023-07-31T12:24:40;31.00;27.80
80232;DHT22;70197;42.124;24.752;2023-07-31T12:27:10;31.00;27.70
80232;DHT22;70197;42.124;24.752;2023-07-31T12:29:36;31.10;27.90
80232;DHT22;70197;42.124;24.752;2023-07-31T12:32:02;31.20;28.00
80232;DHT22;70197;42.124;24.752;2023-07-31T12:34:28;31.10;28.50
80232;DHT22;70197;42.124;24.752;2023-07-31T12:36:54;31.20;28.80
80232;DHT22;70197;42.124;24.752;2023-07-31T12:39:19;31.10;28.60
80232;DHT22;70197;42.124;24.752;2023-07-31T12:41:45;31.00;28.60
80232;DHT22;70197;42.124;24.752;2023-07-31T12:44:11;31.00;28.40
80232;DHT22;70197;42.124;24.752;2023-07-31T12:46:37;31.00;28.50
80232;DHT22;70197;42.124;24.752;2023-07-31T12:49:02;30.90;28.60
80232;DHT22;70197;42.124;24.752;2023-07-31T12:51:28;31.10;28.30
80232;DHT22;70197;42.124;24.752;2023-07-31T12:53:54;31.10;28.00
80232;DHT22;70197;42.124;24.752;2023-07-31T12:56:19;31.10;27.80
80232;DHT22;70197;42.124;24.752;2023-07-31T12:58:45;31.10;27.70
80232;DHT22;70197;42.124;24.752;2023-07-31T13:01:11;31.10;27.70
80232;DHT22;70197;42.124;24.752;2023-07-31T13:03:36;31.20;27.40
80232;DHT22;70197;42.124;24.752;2023-07-31T13:06:03;31.30;27.50
80232;DHT22;70197;42.124;24.752;2023-07-31T13:08:28;31.30;27.20
80232;DHT22;70197;42.124;24.752;2023-07-31T13:10:54;31.30;27.10
80232;DHT22;70197;42.124;24.752;2023-07-31T13:13:20;31.30;27.10
80232;DHT22;70197;42.124;24.752;2023-07-31T13:15:46;31.00;27.20
80232;DHT22;70197;42.124;24.752;2023-07-31T13:18:12;31.00;27.50
80232;DHT22;70197;42.124;24.752;2023-07-31T13:20:37;30.80;27.80
80232;DHT22;70197;42.124;24.752;2023-07-31T13:23:03;30.80;28.10
80232;DHT22;70197;42.124;24.752;2023-07-31T13:25:29;30.70;28.30
80232;DHT22;70197;42.124;24.752;2023-07-31T13:27:55;30.70;28.30
80232;DHT22;70197;42.124;24.752;2023-07-31T13:30:20;30.60;28.20
80232;DHT22;70197;42.124;24.752;2023-07-31T13:32:46;30.60;28.20
80232;DHT22;70197;42.124;24.752;2023-07-31T13:35:11;30.60;28.10
80232;DHT22;70197;42.124;24.752;2023-07-31T13:37:37;30.60;28.10
80232;DHT22;70197;42.124;24.752;2023-07-31T13:40:03;30.60;27.90
80232;DHT22;70197;42.124;24.752;2023-07-31T13:42:30;30.70;27.80
80232;DHT22;70197;42.124;24.752;2023-07-31T13:44:56;30.70;27.60
80232;DHT22;70197;42.124;24.752;2023-07-31T13:47:22;30.50;27.40
80232;DHT22;70197;42.124;24.752;2023-07-31T13:49:48;30.50;27.50
80232;DHT22;70197;42.124;24.752;2023-07-31T13:52:13;30.50;27.60
80232;DHT22;70197;42.124;24.752;2023-07-31T13:54:39;30.60;28.00
80232;DHT22;70197;42.124;24.752;2023-07-31T13:57:05;30.60;27.90
80232;DHT22;70197;42.124;24.752;2023-07-31T13:59:30;30.80;27.60
80232;DHT22;70197;42.124;24.752;2023-07-31T14:01:56;30.70;27.50
80232;DHT22;70197;42.124;24.752;2023-07-31T14:04:24;30.80;27.60
80232;DHT22;70197;42.124;24.752;2023-07-31T14:06:50;30.80;28.40
80232;DHT22;70197;42.124;24.752;2023-07-31T14:09:16;30.80;28.00
80232;DHT22;70197;42.124;24.752;2023-07-31T14:11:43;30.90;28.00
80232;DHT22;70197;42.124;24.752;2023-07-31T14:14:11;30.90;27.30
80232;DHT22;70197;42.124;24.752;2023-07-31T14:16:37;30.80;27.30
80232;DHT22;70197;42.124;24.752;2023-07-31T14:19:03;30.70;27.30
80232;DHT22;70197;42.124;24.752;2023-07-31T14:21:29;30.50;27.70
80232;DHT22;70197;42.124;24.752;2023-07-31T14:23:54;30.50;27.70
80232;DHT22;70197;42.124;24.752;2023-07-31T14:26:20;30.60;27.80
80232;DHT22;70197;42.124;24.752;2023-07-31T14:28:46;30.40;27.80
80232;DHT22;70197;42.124;24.752;2023-07-31T14:31:12;30.40;28.00
80232;DHT22;70197;42.124;24.752;2023-07-31T14:33:37;30.30;28.00
80232;DHT22;70197;42.124;24.752;2023-07-31T14:36:03;30.30;28.10
80232;DHT22;70197;42.124;24.752;2023-07-31T14:38:29;30.20;28.30
80232;DHT22;70197;42.124;24.752;2023-07-31T14:40:54;30.20;28.40
80232;DHT22;70197;42.124;24.752;2023-07-31T14:43:21;30.20;28.60
80232;DHT22;70197;42.124;24.752;2023-07-31T14:45:46;30.00;28.60
80232;DHT22;70197;42.124;24.752;2023-07-31T14:48:12;29.90;28.80
80232;DHT22;70197;42.124;24.752;2023-07-31T14:50:38;29.90;29.90
80232;DHT22;70197;42.124;24.752;2023-07-31T14:53:04;29.90;29.20
80232;DHT22;70197;42.124;24.752;2023-07-31T14:55:29;29.90;29.20
80232;DHT22;70197;42.124;24.752;2023-07-31T14:57:55;29.70;29.70
80232;DHT22;70197;42.124;24.752;2023-07-31T15:00:21;29.70;29.80
80232;DHT22;70197;42.124;24.752;2023-07-31T15:02:46;29.90;29.80
80232;DHT22;70197;42.124;24.752;2023-07-31T15:05:12;29.80;29.80
80232;DHT22;70197;42.124;24.752;2023-07-31T15:07:37;29.80;29.90
80232;DHT22;70197;42.124;24.752;2023-07-31T15:10:04;29.70;30.00
80232;DHT22;70197;42.124;24.752;2023-07-31T15:12:31;29.80;30.20
80232;DHT22;70197;42.124;24.752;2023-07-31T15:14:56;29.90;30.30
80232;DHT22;70197;42.124;24.752;2023-07-31T15:17:22;29.80;30.20
80232;DHT22;70197;42.124;24.752;2023-07-31T15:19:48;29.70;30.40
80232;DHT22;70197;42.124;24.752;2023-07-31T15:22:14;29.50;30.70
80232;DHT22;70197;42.124;24.752;2023-07-31T15:24:39;29.50;30.70
80232;DHT22;70197;42.124;24.752;2023-07-31T15:27:05;29.60;30.60